Hollandale, Wisconsin
Current Conditions -  °F | °C
As of 11:15 AM on Thursday 27 Nov 2014 (Local Time) from KMRJ Reporting Station
Scattered Clouds Scattered Clouds  
Wind Chill: 10°   Ceiling: Unl
Heat Index: 21°   Visibility: 10mi
Dew Point: 10°   Wind: 10mph
Humidity: 63%   Direction: 330°NNW
Pressure: 30.37"   Gusts: NA
Location:  42.88°N, 89.94°W
Report Text: KMRJ 271715Z AUTO 33009KT 10SM SCT017 M06/M12 A3037 RMK AO2
Loading
Personal Weather Stations






























Interactive Weather Map New forecast layout! Learn more

10-Day Weather Forecast

Advertisements
Track Severe Weather on mobile